• Join FlightAware (Why Join?)
  • Login
  • US Flag 
10:47PM EDT


 

Airport Tracker/Info


-or-


 

Live Flight TrackerFlight Track Log ✈ EJA809 ✈ 05-May-2013 ✈ KBDU - KSAF

Flight Track Log - Related Links

Times and Time Zones

All times are in EDT time to prevent confusion due to time zone crossing. See the EJA809 flight status page for this flight to view local times or setup timezone preferences in your user account.

Time Position Orientation Groundspeed Altitude Reporting Facility
EDT Latitude Longitude Course Direction KTS MPH feet Rate Location/Type
04:01PM 40.0333 -105.1333 131° Southeast 217 250 8,300  Level Denver TRACON
04:02PM 40.0000 -105.0833 131° Southeast 238 274 10,500 2,100 Climbing Denver TRACON
04:03PM 39.9700 -105.0575 147° Southeast 242 278 11,300 1,920 Climbing Denver Center
04:04PM 39.8939 -104.9983 149° Southeast 298 343 13,300 1,860 Climbing Denver Center
04:05PM 39.8142 -104.9378 150° Southeast 331 381 15,200 1,920 Climbing Denver Center
04:06PM 39.7161 -104.8981 163° South 349 402 17,300 1,680 Climbing Denver Center
04:07PM 39.6242 -104.8719 168° South 342 394 18,700 1,380 Climbing Denver Center
04:08PM 39.5183 -104.8447 169° South 364 419 20,200 1,380 Climbing Denver Center
04:09PM 39.4203 -104.8289 173° South 363 418 21,600 1,320 Climbing Denver Center
04:10PM 39.3272 -104.8800 203° Southwest 364 419 23,000 1,320 Climbing Denver Center
04:11PM 39.2347 -104.9456 209° Southwest 358 412 24,400 960 Climbing Denver Center
04:12PM 39.1433 -105.0092 208° Southwest 370 426 25,000 240 Climbing Denver Center
04:13PM 39.0478 -105.0767 209° Southwest 384 442 25,000  Level Denver Center
04:14PM 38.9511 -105.1442 209° Southwest 391 450 25,000  Level Denver Center
04:15PM 38.8461 -105.2178 209° Southwest 384 442 25,000  Level Denver Center
04:16PM 38.7575 -105.2789 208° Southwest 380 437 25,000  Level Denver Center
04:17PM 38.6544 -105.3506 209° Southwest 378 435 25,000  Level Denver Center
04:18PM 38.5628 -105.4011 203° Southwest 377 434 25,000  Level Denver Center
04:19PM 38.4469 -105.4406 195° South 385 443 25,000  Level Denver Center
04:20PM 38.3478 -105.4744 195° South 385 443 25,000  Level Denver Center
04:21PM 38.2333 -105.5147 195° South 382 440 25,000  Level Denver Center
04:22PM 38.1364 -105.5483 195° South 378 435 25,000  Level Denver Center
04:23PM 38.0203 -105.5878 195° South 385 443 25,000  Level Denver Center
04:24PM 37.9244 -105.6197 195° South 377 434 25,000  Level Denver Center
04:25PM 37.8125 -105.6581 195° South 374 430 25,000  Level Denver Center
04:26PM 37.7139 -105.6911 195° South 379 436 25,000  Level Denver Center
04:27PM 37.6158 -105.7253 195° South 381 438 25,000  Level Denver Center
04:28PM 37.4969 -105.7661 195° South 390 449 25,000  Level Denver Center
04:30PM 37.3942 -105.7989 194° South 393 452 25,000  Level Denver Center
04:31PM 37.2756 -105.8272 191° South 393 452 25,000  Level Denver Center
04:32PM 37.1675 -105.8444 187° South 397 457 25,000  Level Denver Center
04:33PM 37.0444 -105.8633 187° South 397 457 25,000  Level Denver Center
04:34PM 36.9433 -105.8800 188° South 393 452 25,000  Level Denver Center
04:35PM 36.8228 -105.8983 187° South 391 450 25,000  Level Denver Center
04:36PM 36.7156 -105.9158 187° South 391 450 25,000 -300 Level Denver Center
04:37PM 36.6086 -105.9328 187° South 387 445 24,500 -720 Descending Denver Center
04:37PM 36.5803 -105.9389 190° South 394 453 24,100 -1,680 Descending Albuquerque Center
04:38PM 36.4761 -105.9572 188° South 348 400 22,300 -1,800 Descending Albuquerque Center
04:39PM 36.3831 -105.9706 187° South 336 387 20,500 -1,800 Descending Albuquerque Center
04:40PM 36.2911 -105.9844 187° South 332 382 18,600 -1,800 Descending Albuquerque Center
04:41PM 36.1969 -106.0008 188° South 337 388 16,800 -1,800 Descending Albuquerque Center
04:42PM 36.1025 -106.0128 186° South 341 392 14,900 -1,920 Descending Albuquerque Center
04:43PM 36.0144 -106.0267 187° South 330 380 12,900 -1,440 Descending Albuquerque Center
04:44PM 35.9306 -106.0406 188° South 318 366 12,000 -1,020 Descending Albuquerque Center
04:45PM 35.8325 -106.0608 190° South 306 352 10,800 -1,320 Descending Albuquerque Center
04:47PM 35.7110 -106.0662 182° South  Level FlightAware Approximate
04:47PM 35.7142 -106.1178 182° South 231 266 8,000  Level Albuquerque Center
04:48PM 35.6669 -106.1022 165° South 193 222 7,200 -780 Descending Albuquerque Center